createdAt,value
2019-02-02T00:00:54.743Z,9.63
2019-02-02T00:03:20.738Z,10.67
2019-02-02T00:05:46.709Z,9.73
2019-02-02T00:08:12.689Z,10.33
2019-02-02T00:10:38.660Z,10.13
2019-02-02T00:13:05.389Z,10.33
2019-02-02T00:15:31.353Z,11.13
2019-02-02T00:17:57.333Z,10.53
2019-02-02T00:20:23.291Z,9.90
2019-02-02T00:22:50.007Z,11.10
2019-02-02T00:25:15.961Z,10.40
2019-02-02T00:27:41.932Z,9.73
2019-02-02T00:30:07.922Z,10.30
2019-02-02T00:32:33.877Z,10.17
2019-02-02T00:34:59.977Z,10.80
2019-02-02T00:37:25.875Z,10.13
2019-02-02T00:39:51.863Z,10.17
2019-02-02T00:42:17.822Z,10.77
2019-02-02T00:44:43.811Z,11.13
2019-02-02T00:47:09.761Z,11.20
2019-02-02T00:49:35.824Z,10.50
2019-02-02T00:52:01.778Z,9.73
2019-02-02T00:54:28.527Z,8.30
2019-02-02T00:56:55.237Z,9.97
2019-02-02T00:59:21.246Z,10.60
2019-02-02T01:01:47.216Z,10.17
2019-02-02T01:04:13.940Z,10.50
2019-02-02T01:06:39.880Z,10.77
2019-02-02T01:09:06.606Z,9.23
2019-02-02T01:11:32.573Z,9.80
2019-02-02T01:13:58.530Z,9.40
2019-02-02T01:16:24.501Z,10.43
2019-02-02T01:18:50.472Z,8.90
2019-02-02T01:21:16.468Z,10.87
2019-02-02T01:23:42.417Z,10.40
2019-02-02T01:26:08.397Z,9.50
2019-02-02T01:28:34.377Z,9.77
2019-02-02T01:31:00.370Z,10.60
2019-02-02T01:33:26.318Z,9.63
2019-02-02T01:35:52.299Z,8.93
2019-02-02T01:38:18.998Z,9.33
2019-02-02T01:40:44.983Z,10.17
2019-02-02T01:43:10.947Z,10.27
2019-02-02T01:45:37.659Z,10.43
2019-02-02T01:48:03.610Z,9.30
2019-02-02T01:50:30.314Z,9.90
2019-02-02T01:52:56.335Z,9.33
2019-02-02T01:55:22.291Z,9.47
2019-02-02T01:57:49.041Z,8.70
2019-02-02T02:00:15.748Z,9.73
2019-02-02T02:02:41.744Z,9.70
2019-02-02T02:05:07.713Z,9.63
2019-02-02T02:07:34.446Z,9.40
2019-02-02T02:10:00.421Z,8.50
2019-02-02T02:12:26.417Z,9.27
2019-02-02T02:14:53.115Z,10.53
2019-02-02T02:17:19.127Z,9.47
2019-02-02T02:19:45.125Z,10.10
2019-02-02T02:22:11.121Z,10.27
2019-02-02T02:24:37.842Z,9.93
2019-02-02T02:27:03.818Z,10.47
2019-02-02T02:29:29.804Z,9.67
2019-02-02T02:31:55.788Z,10.07
2019-02-02T02:34:21.752Z,11.57
2019-02-02T02:36:48.437Z,10.60
2019-02-02T02:39:14.439Z,10.47
2019-02-02T02:41:40.424Z,10.13
2019-02-02T02:44:07.160Z,9.77
2019-02-02T02:46:33.192Z,9.77
2019-02-02T02:48:59.173Z,9.80
2019-02-02T02:51:25.155Z,9.07
2019-02-02T02:53:51.887Z,9.93
2019-02-02T02:56:18.597Z,9.63
2019-02-02T02:58:44.585Z,10.20
2019-02-02T03:01:10.561Z,9.87
2019-02-02T03:03:36.538Z,11.10
2019-02-02T03:06:02.501Z,10.87
2019-02-02T03:08:28.498Z,11.37
2019-02-02T03:10:54.518Z,9.77
2019-02-02T03:13:20.503Z,10.80
2019-02-02T03:15:47.198Z,9.17
2019-02-02T03:18:13.169Z,10.70
2019-02-02T03:20:39.141Z,9.80
2019-02-02T03:23:05.099Z,12.77
2019-02-02T03:25:31.840Z,10.73
2019-02-02T03:27:58.544Z,9.77
2019-02-02T03:30:24.531Z,10.67
2019-02-02T03:32:50.510Z,10.47
2019-02-02T03:35:17.266Z,11.67
2019-02-02T03:37:43.969Z,10.47
2019-02-02T03:40:09.966Z,10.47
2019-02-02T03:42:35.920Z,11.17
2019-02-02T03:45:01.958Z,10.87
2019-02-02T03:47:27.909Z,10.93
2019-02-02T03:49:53.920Z,11.20
2019-02-02T03:52:20.627Z,11.40
2019-02-02T03:54:46.604Z,10.60
2019-02-02T03:57:12.594Z,11.47
2019-02-02T03:59:38.545Z,10.40
2019-02-02T04:02:04.540Z,10.80
2019-02-02T04:04:30.510Z,10.77
2019-02-02T04:06:56.492Z,11.80
2019-02-02T04:09:23.195Z,9.80
2019-02-02T04:11:49.183Z,11.50
2019-02-02T04:14:15.144Z,10.97
2019-02-02T04:16:41.139Z,12.40
2019-02-02T04:19:07.106Z,11.43
2019-02-02T04:21:33.084Z,10.10
2019-02-02T04:23:59.035Z,11.17
2019-02-02T04:26:25.034Z,11.30
2019-02-02T04:28:51.022Z,11.07
2019-02-02T04:31:17.715Z,11.20
2019-02-02T04:33:43.685Z,11.17
2019-02-02T04:36:10.365Z,10.80
2019-02-02T04:38:36.382Z,10.70
2019-02-02T04:41:02.337Z,12.43
2019-02-02T04:43:28.303Z,12.17
2019-02-02T04:45:54.271Z,12.17
2019-02-02T04:48:20.248Z,11.37
2019-02-02T04:50:46.203Z,11.87
2019-02-02T04:53:12.170Z,11.00
2019-02-02T04:55:38.133Z,11.00
2019-02-02T04:58:04.101Z,10.67
2019-02-02T05:00:30.072Z,10.97
2019-02-02T05:02:56.049Z,11.30
2019-02-02T05:05:22.014Z,10.93
2019-02-02T05:07:47.999Z,11.10
2019-02-02T05:10:13.944Z,11.13
2019-02-02T05:12:39.902Z,11.20
2019-02-02T05:15:05.877Z,10.77
2019-02-02T05:17:32.575Z,11.33
2019-02-02T05:19:58.553Z,12.50
2019-02-02T05:22:24.511Z,11.17
2019-02-02T05:24:50.584Z,13.17
2019-02-02T05:27:16.516Z,11.53
2019-02-02T05:29:43.245Z,11.97
2019-02-02T05:32:09.954Z,11.40
2019-02-02T05:34:35.925Z,10.93
2019-02-02T05:37:02.622Z,11.43
2019-02-02T05:39:28.628Z,10.30
2019-02-02T05:41:54.586Z,12.30
2019-02-02T05:44:20.577Z,12.47
2019-02-02T05:46:46.542Z,13.33
2019-02-02T05:49:13.278Z,12.83
2019-02-02T05:51:39.991Z,11.83
2019-02-02T05:54:05.958Z,11.03
2019-02-02T05:56:32.681Z,11.63
2019-02-02T05:58:58.635Z,11.67
2019-02-02T06:01:24.626Z,11.97
2019-02-02T06:03:51.320Z,12.03
2019-02-02T06:06:17.315Z,11.50
2019-02-02T06:08:43.300Z,11.40
2019-02-02T06:11:09.283Z,11.60
2019-02-02T06:13:35.251Z,12.50
2019-02-02T06:16:01.231Z,11.20
2019-02-02T06:18:27.181Z,12.10
2019-02-02T06:20:53.169Z,10.37
2019-02-02T06:23:19.163Z,10.87
2019-02-02T06:25:45.890Z,11.30
2019-02-02T06:28:12.596Z,12.83
2019-02-02T06:30:38.573Z,11.67
2019-02-02T06:33:04.559Z,11.97
2019-02-02T06:35:30.501Z,11.90
2019-02-02T06:37:56.475Z,12.80
2019-02-02T06:40:22.445Z,12.10
2019-02-02T06:42:49.181Z,10.80
2019-02-02T06:45:15.881Z,13.17
2019-02-02T06:47:41.881Z,10.80
2019-02-02T06:50:07.829Z,11.80
2019-02-02T06:52:33.809Z,11.20
2019-02-02T06:54:59.774Z,10.70
2019-02-02T06:57:25.760Z,11.60
2019-02-02T06:59:51.735Z,12.40
2019-02-02T07:02:17.722Z,11.03
2019-02-02T07:04:43.667Z,11.87
2019-02-02T07:07:09.659Z,11.20
2019-02-02T07:09:35.618Z,12.80
2019-02-02T07:12:01.618Z,12.33
2019-02-02T07:14:27.588Z,12.97
2019-02-02T07:16:53.652Z,12.97
2019-02-02T07:19:19.561Z,12.20
2019-02-02T07:21:45.559Z,10.60
2019-02-02T07:24:12.294Z,11.90
2019-02-02T07:26:38.260Z,12.80
2019-02-02T07:29:04.241Z,13.00
2019-02-02T07:31:30.189Z,13.03
2019-02-02T07:33:56.186Z,12.20
2019-02-02T07:36:22.954Z,11.97
2019-02-02T07:38:49.668Z,11.73
2019-02-02T07:41:15.649Z,12.27
2019-02-02T07:43:41.635Z,11.43
2019-02-02T07:46:14.965Z,10.43
2019-02-02T07:48:34.383Z,11.57
2019-02-02T07:51:01.112Z,12.03
2019-02-02T07:53:27.117Z,12.97
2019-02-02T07:55:53.088Z,13.43
2019-02-02T07:58:19.119Z,12.50
2019-02-02T08:00:45.103Z,11.50
2019-02-02T08:03:11.051Z,13.83
2019-02-02T08:05:37.766Z,11.70
2019-02-02T08:08:03.725Z,12.50
2019-02-02T08:10:29.714Z,12.03
2019-02-02T08:12:55.672Z,14.00
2019-02-02T08:15:21.660Z,11.13
2019-02-02T08:17:47.648Z,10.60
2019-02-02T08:20:13.639Z,11.00
2019-02-02T08:22:40.335Z,12.10
2019-02-02T08:25:06.326Z,12.53
2019-02-02T08:27:32.302Z,12.07
2019-02-02T08:29:59.031Z,11.17
2019-02-02T08:32:24.981Z,11.53
2019-02-02T08:34:50.981Z,10.93
2019-02-02T08:37:16.939Z,12.13
2019-02-02T08:39:42.935Z,13.03
2019-02-02T08:42:09.659Z,12.30
2019-02-02T08:44:35.628Z,11.83
2019-02-02T08:47:01.647Z,12.73
2019-02-02T08:49:27.624Z,11.93
2019-02-02T08:51:53.613Z,11.80
2019-02-02T08:54:19.577Z,11.03
2019-02-02T08:56:45.590Z,13.33
2019-02-02T08:59:11.535Z,11.47
2019-02-02T09:01:38.248Z,12.40
2019-02-02T09:04:04.283Z,12.90
2019-02-02T09:06:38.570Z,12.83
2019-02-02T09:08:57.042Z,13.63
2019-02-02T09:11:23.061Z,11.93
2019-02-02T09:13:49.038Z,10.80
2019-02-02T09:16:14.990Z,14.20
2019-02-02T09:18:40.976Z,11.80
2019-02-02T09:21:07.689Z,12.97
2019-02-02T09:23:34.418Z,11.83
2019-02-02T09:26:00.367Z,11.47
2019-02-02T09:28:26.351Z,12.37
2019-02-02T09:30:52.312Z,13.10
2019-02-02T09:33:18.307Z,11.20
2019-02-02T09:35:44.263Z,11.77
2019-02-02T09:38:12.295Z,11.77
2019-02-02T09:40:36.982Z,11.87
2019-02-02T09:43:02.976Z,12.47
2019-02-02T09:45:28.921Z,12.60
2019-02-02T09:47:54.997Z,12.57
2019-02-02T09:50:20.979Z,11.57
2019-02-02T09:52:46.977Z,12.93
2019-02-02T09:55:12.996Z,14.60
2019-02-02T09:57:39.690Z,13.03
2019-02-02T10:00:06.417Z,13.27
2019-02-02T10:02:32.366Z,11.57
2019-02-02T10:04:58.367Z,14.50
2019-02-02T10:07:25.079Z,12.33
2019-02-02T10:09:51.052Z,14.20
2019-02-02T10:12:17.049Z,12.97
2019-02-02T10:14:43.797Z,12.77
2019-02-02T10:17:10.497Z,12.10
2019-02-02T10:19:36.474Z,12.23
2019-02-02T10:22:02.445Z,12.77
2019-02-02T10:24:28.761Z,12.40
2019-02-02T10:26:55.211Z,12.07
2019-02-02T10:29:21.185Z,12.87
2019-02-02T10:31:47.877Z,13.53
2019-02-02T10:34:13.879Z,13.10
2019-02-02T10:36:39.882Z,13.07
2019-02-02T10:39:05.827Z,13.57
2019-02-02T10:41:31.815Z,14.47
2019-02-02T10:43:58.506Z,13.87
2019-02-02T10:46:24.494Z,12.07
2019-02-02T10:48:50.447Z,14.43
2019-02-02T10:51:16.434Z,12.87
2019-02-02T10:53:42.399Z,13.07
2019-02-02T10:56:08.388Z,13.80
2019-02-02T10:58:34.339Z,13.07
2019-02-02T11:01:01.093Z,14.07
2019-02-02T11:03:27.038Z,14.13
2019-02-02T11:05:53.106Z,13.17
2019-02-02T11:08:19.775Z,14.23
2019-02-02T11:10:45.837Z,14.10
2019-02-02T11:13:12.070Z,13.20
2019-02-02T11:15:37.824Z,12.80
2019-02-02T11:18:03.852Z,13.87
2019-02-02T11:20:29.829Z,12.90
2019-02-02T11:22:55.958Z,14.70
2019-02-02T11:25:21.852Z,13.47
2019-02-02T11:27:47.853Z,14.43
2019-02-02T11:30:13.802Z,14.77
2019-02-02T11:32:39.786Z,14.13
2019-02-02T11:35:05.753Z,13.27
2019-02-02T11:37:32.488Z,11.80
2019-02-02T11:39:58.437Z,13.73
2019-02-02T11:42:24.420Z,13.20
2019-02-02T11:44:50.387Z,13.73
2019-02-02T11:47:16.380Z,13.30
2019-02-02T11:49:42.336Z,13.67
2019-02-02T11:52:08.309Z,13.73
2019-02-02T11:54:34.257Z,15.27
2019-02-02T11:57:00.988Z,14.53
2019-02-02T11:59:26.970Z,14.90
2019-02-02T12:01:52.921Z,14.07
2019-02-02T12:04:18.917Z,15.50
2019-02-02T12:06:44.990Z,15.70
2019-02-02T12:09:11.360Z,14.07
2019-02-02T12:11:38.028Z,14.70
2019-02-02T12:14:04.111Z,15.03
2019-02-02T12:16:30.079Z,15.63
2019-02-02T12:18:56.067Z,15.17
2019-02-02T12:21:22.035Z,14.43
2019-02-02T12:23:48.053Z,14.87
2019-02-02T12:26:14.025Z,15.20
2019-02-02T12:28:39.986Z,16.07
2019-02-02T12:31:05.946Z,14.97
2019-02-02T12:33:32.682Z,15.03
2019-02-02T12:35:59.398Z,15.77
2019-02-02T12:38:26.163Z,15.20
2019-02-02T12:40:52.888Z,14.80
2019-02-02T12:43:20.082Z,14.33
2019-02-02T12:45:46.142Z,14.40
2019-02-02T12:48:12.118Z,14.70
2019-02-02T12:50:38.834Z,14.17
2019-02-02T12:53:05.553Z,13.90
2019-02-02T12:55:31.556Z,14.93
2019-02-02T12:57:57.523Z,15.90
2019-02-02T13:00:24.250Z,14.33
2019-02-02T13:02:50.251Z,13.00
2019-02-02T13:05:16.232Z,14.50
2019-02-02T13:07:42.273Z,14.70
2019-02-02T13:10:08.381Z,15.10
2019-02-02T13:12:34.332Z,14.57
2019-02-02T13:15:00.475Z,15.33
2019-02-02T13:17:26.338Z,15.67
2019-02-02T13:19:53.028Z,14.83
2019-02-02T13:22:19.043Z,15.20
2019-02-02T13:24:45.336Z,13.60
2019-02-02T13:27:11.039Z,16.20
2019-02-02T13:29:36.987Z,15.73
2019-02-02T13:32:02.961Z,13.50
2019-02-02T13:34:28.925Z,15.53
2019-02-02T13:36:55.638Z,14.40
2019-02-02T13:39:21.631Z,15.00
2019-02-02T13:41:47.620Z,15.23
2019-02-02T13:44:13.565Z,13.57
2019-02-02T13:46:39.556Z,16.50
2019-02-02T13:49:06.276Z,15.00
2019-02-02T13:51:32.268Z,14.10
2019-02-02T13:53:58.216Z,15.60
2019-02-02T13:56:24.263Z,14.37
2019-02-02T13:58:50.237Z,14.33
2019-02-02T14:01:16.192Z,14.90
2019-02-02T14:03:42.224Z,14.83
2019-02-02T14:06:08.929Z,15.63
2019-02-02T14:08:34.905Z,14.60
2019-02-02T14:11:00.884Z,15.97
2019-02-02T14:13:27.642Z,15.03
2019-02-02T14:15:54.353Z,15.50
2019-02-02T14:18:20.344Z,14.73
2019-02-02T14:20:46.307Z,15.70
2019-02-02T14:23:12.294Z,16.20
2019-02-02T14:25:38.266Z,14.43
2019-02-02T14:28:04.268Z,15.53
2019-02-02T14:30:30.231Z,16.10
2019-02-02T14:32:56.219Z,16.93
2019-02-02T14:35:22.186Z,14.90
2019-02-02T14:37:48.908Z,16.77
2019-02-02T14:40:15.633Z,15.57
2019-02-02T14:42:41.652Z,15.73
2019-02-02T14:45:07.636Z,15.90
2019-02-02T14:47:33.600Z,16.07
2019-02-02T14:49:59.596Z,16.23
2019-02-02T14:52:25.538Z,16.00
2019-02-02T14:54:51.826Z,14.77
2019-02-02T14:57:24.587Z,15.97
2019-02-02T14:59:50.584Z,16.07
2019-02-02T15:02:16.608Z,16.67
2019-02-02T15:04:42.634Z,14.73
2019-02-02T15:07:08.720Z,14.47
2019-02-02T15:09:34.635Z,15.57
2019-02-02T15:12:00.589Z,17.37
2019-02-02T15:14:26.594Z,15.63
2019-02-02T15:16:52.569Z,15.63
2019-02-02T15:19:19.309Z,15.03
2019-02-02T15:21:46.020Z,16.57
2019-02-02T15:24:11.965Z,14.87
2019-02-02T15:26:38.707Z,16.60
2019-02-02T15:29:04.680Z,15.87
2019-02-02T15:31:30.680Z,15.20
2019-02-02T15:33:56.651Z,16.20
2019-02-02T15:36:22.660Z,16.00
2019-02-02T15:38:48.621Z,14.80
2019-02-02T15:41:14.649Z,16.40
2019-02-02T15:43:41.362Z,15.80
2019-02-02T15:46:07.364Z,15.33
2019-02-02T15:48:33.344Z,15.57
2019-02-02T15:50:59.348Z,14.60
2019-02-02T15:53:26.057Z,17.33
2019-02-02T15:55:52.051Z,15.33
2019-02-02T15:58:18.027Z,14.80
2019-02-02T16:00:44.781Z,14.23
2019-02-02T16:03:11.505Z,16.40
2019-02-02T16:05:37.468Z,14.30
2019-02-02T16:08:03.464Z,15.40
2019-02-02T16:10:30.378Z,15.67
2019-02-02T16:12:57.255Z,14.97
2019-02-02T16:15:23.488Z,14.93
2019-02-02T16:17:50.237Z,15.80
2019-02-02T16:20:16.923Z,15.77
2019-02-02T16:22:42.926Z,15.03
2019-02-02T16:25:08.922Z,14.30
2019-02-02T16:27:35.667Z,14.20
2019-02-02T16:30:01.665Z,13.23
2019-02-02T16:32:27.660Z,15.77
2019-02-02T16:34:53.650Z,16.17
2019-02-02T16:37:19.643Z,14.23
2019-02-02T16:39:46.352Z,15.37
2019-02-02T16:42:12.344Z,15.30
2019-02-02T16:44:38.315Z,14.37
2019-02-02T16:47:04.283Z,13.50
2019-02-02T16:49:30.269Z,15.97
2019-02-02T16:51:56.986Z,14.03
2019-02-02T16:54:22.994Z,16.30
2019-02-02T16:56:50.968Z,15.87
2019-02-02T16:59:15.005Z,16.83
2019-02-02T17:01:40.963Z,16.90
2019-02-02T17:04:15.529Z,16.83
2019-02-02T17:06:33.752Z,14.13
2019-02-02T17:08:59.732Z,16.10
2019-02-02T17:11:25.684Z,15.23
2019-02-02T17:13:52.552Z,14.03
2019-02-02T17:16:17.652Z,14.73
2019-02-02T17:18:43.631Z,14.67
2019-02-02T17:21:09.592Z,15.87
2019-02-02T17:23:35.585Z,16.53
2019-02-02T17:26:01.590Z,14.73
2019-02-02T17:28:27.547Z,13.73
2019-02-02T17:30:53.594Z,14.90
2019-02-02T17:33:20.318Z,14.73
2019-02-02T17:35:46.314Z,16.10
2019-02-02T17:38:12.263Z,14.17
2019-02-02T17:40:38.255Z,15.73
2019-02-02T17:43:04.205Z,16.03
2019-02-02T17:45:30.198Z,16.00
2019-02-02T17:47:56.161Z,16.50
2019-02-02T17:50:22.138Z,16.17
2019-02-02T17:52:48.079Z,16.63
2019-02-02T17:55:14.175Z,16.33
2019-02-02T17:57:40.121Z,15.13
2019-02-02T18:00:06.090Z,15.27
2019-02-02T18:02:32.794Z,16.90
2019-02-02T18:04:58.750Z,14.77
2019-02-02T18:07:25.487Z,15.60
2019-02-02T18:09:52.197Z,16.33
2019-02-02T18:12:18.181Z,14.90
2019-02-02T18:14:44.173Z,13.77
2019-02-02T18:17:10.154Z,15.57
2019-02-02T18:19:39.736Z,14.20
2019-02-02T18:22:09.871Z,15.40
2019-02-02T18:24:37.923Z,15.33
2019-02-02T18:27:06.954Z,16.90
2019-02-02T18:29:33.620Z,17.37
2019-02-02T18:32:12.488Z,17.17
2019-02-02T18:34:28.604Z,15.60
2019-02-02T18:36:55.000Z,15.77
2019-02-02T18:39:21.133Z,17.93
2019-02-02T18:41:50.121Z,16.07
2019-02-02T18:44:19.196Z,17.33
2019-02-02T18:46:48.512Z,14.90
2019-02-02T18:49:17.613Z,14.17
2019-02-02T18:51:46.662Z,13.63
2019-02-02T18:54:12.618Z,14.43
2019-02-02T18:56:39.315Z,15.67
2019-02-02T18:59:05.312Z,14.90
2019-02-02T19:01:31.301Z,13.93
2019-02-02T19:03:57.367Z,14.13
2019-02-02T19:06:23.336Z,13.40
2019-02-02T19:08:49.311Z,14.83
2019-02-02T19:11:15.244Z,14.27
2019-02-02T19:13:41.202Z,14.93
2019-02-02T19:16:07.924Z,14.67
2019-02-02T19:18:33.917Z,12.10
2019-02-02T19:20:59.913Z,13.17
2019-02-02T19:23:26.642Z,13.10
2019-02-02T19:25:53.339Z,14.83
2019-02-02T19:28:19.319Z,14.80
2019-02-02T19:30:45.289Z,14.53
2019-02-02T19:33:11.273Z,14.93
2019-02-02T19:35:37.243Z,14.93
2019-02-02T19:38:03.303Z,13.80
2019-02-02T19:40:30.020Z,13.13
2019-02-02T19:42:55.968Z,12.50
2019-02-02T19:45:23.288Z,13.37
2019-02-02T19:47:49.270Z,12.77
2019-02-02T19:50:15.342Z,12.57
2019-02-02T19:52:41.395Z,13.50
2019-02-02T19:55:14.313Z,14.50
2019-02-02T19:57:33.345Z,14.73
2019-02-02T20:00:02.701Z,13.43
2019-02-02T20:02:26.078Z,12.77
2019-02-02T20:04:52.061Z,14.17
2019-02-02T20:07:18.038Z,14.17
2019-02-02T20:09:44.076Z,13.00
2019-02-02T20:12:10.060Z,13.63
2019-02-02T20:14:36.113Z,12.30
2019-02-02T20:17:02.113Z,12.83
2019-02-02T20:19:28.087Z,12.17
2019-02-02T20:21:54.089Z,12.10
2019-02-02T20:24:20.111Z,12.27
2019-02-02T20:26:46.142Z,13.10
2019-02-02T20:29:12.162Z,12.87
2019-02-02T20:31:38.205Z,11.73
2019-02-02T20:34:04.182Z,12.13
2019-02-02T20:36:30.960Z,11.83
2019-02-02T20:38:56.989Z,11.43
2019-02-02T20:41:25.064Z,12.53
2019-02-02T20:43:58.798Z,12.47
2019-02-02T20:46:29.727Z,11.97
2019-02-02T20:48:59.769Z,11.83
2019-02-02T20:51:30.535Z,12.13
2019-02-02T20:53:58.088Z,12.53
2019-02-02T20:56:34.501Z,13.43
2019-02-02T21:17:35.672Z,12.50
2019-02-02T21:20:08.511Z,13.33
2019-02-02T21:22:44.951Z,12.47
2019-02-02T21:25:19.680Z,13.63
2019-02-02T21:27:54.691Z,12.77
2019-02-02T21:30:30.413Z,13.83
2019-02-02T21:33:06.303Z,11.70
2019-02-02T21:35:40.347Z,14.57
2019-02-02T21:38:16.485Z,12.83
2019-02-02T21:40:49.677Z,12.47
2019-02-02T21:43:24.649Z,13.77
2019-02-02T21:45:58.157Z,12.73
2019-02-02T21:48:36.248Z,14.23
2019-02-02T21:51:11.442Z,14.13
2019-02-02T21:53:47.515Z,15.27
2019-02-02T21:56:20.449Z,14.07
2019-02-02T21:58:56.827Z,14.70
2019-02-02T22:01:30.317Z,14.73
2019-02-02T22:09:17.676Z,15.67
2019-02-02T22:11:45.554Z,14.77
2019-02-02T22:14:21.906Z,16.27
2019-02-02T22:16:55.629Z,14.80
2019-02-02T22:19:30.893Z,15.90
2019-02-02T22:24:43.544Z,15.00
2019-02-02T22:32:38.280Z,12.77
2019-02-02T22:40:27.750Z,11.80
2019-02-02T22:45:42.803Z,11.20
2019-02-02T22:48:19.422Z,12.07
2019-02-02T22:50:57.476Z,13.90
2019-02-02T22:53:32.835Z,12.77
2019-02-02T22:56:10.339Z,12.80
2019-02-02T23:03:59.220Z,12.57
2019-02-02T23:14:25.543Z,11.87
2019-02-02T23:17:03.412Z,13.53
2019-02-02T23:19:29.583Z,14.03
2019-02-02T23:24:35.828Z,14.87
2019-02-02T23:27:11.802Z,13.73
2019-02-02T23:32:24.339Z,12.33
2019-02-02T23:34:57.211Z,13.27
2019-02-02T23:37:30.811Z,11.80
2019-02-02T23:40:03.424Z,11.77
2019-02-02T23:42:39.156Z,12.60
2019-02-02T23:47:47.485Z,12.47
2019-02-02T23:50:20.617Z,12.97
2019-02-02T23:52:55.507Z,12.40
2019-02-02T23:55:29.214Z,11.37
2019-02-02T23:58:02.506Z,11.60
